KADS/ADS METAR and TAF weather

Enter ICAO airport designator
Station Type Date Time Source
KADS METAR 2021/09/16 10:15 UTC NOAA

KADS 161015Z AUTO 10003KT 10SM CLR 23/19 A2992 RMK AO2 T02320187


Station Type Date Time Source
KADS Decoded METAR 2021/09/16 10:15 UTC NOAA

Dallas / Addison Airport, TX, United States (KADS) 32-58N 096-50W
Sep 16, 2021 - 06:15 AM EDT / 2021.09.16 1015 UTC
Wind: from the E (100 degrees) at 3 MPH (3 KT):0
Visibility: 10 mile(s):0
Sky conditions: clear
Temperature: 73.8 F (23.2 C)
Dew Point: 65.7 F (18.7 C)
Relative Humidity: 75%
Pressure (altimeter): 29.92 in. Hg (1013 hPa)
ob: KADS 161015Z AUTO 10003KT 10SM CLR 23/19 A2992 RMK AO2 T02320187
cycle: 10

Station Type Date Time Source
KADS TAF UTC NOAA

Error!

Example: see airport list